createdAt,value
2022-08-02T00:00:09.258Z,100068.34
2022-08-02T00:02:37.389Z,100067.69
2022-08-02T00:05:05.129Z,100065.56
2022-08-02T00:07:34.206Z,100065.09
2022-08-02T00:10:04.760Z,100055.66
2022-08-02T00:12:32.907Z,100062.34
2022-08-02T00:15:00.299Z,100056.66
2022-08-02T00:17:27.414Z,100056.00
2022-08-02T00:19:54.149Z,100055.53
2022-08-02T00:22:21.527Z,100054.44
2022-08-02T00:24:48.122Z,100058.59
2022-08-02T00:27:15.154Z,100064.41
2022-08-02T00:29:42.640Z,100063.13
2022-08-02T00:32:21.887Z,100062.19
2022-08-02T00:34:49.081Z,100070.53
2022-08-02T00:37:15.820Z,100064.22
2022-08-02T00:39:43.406Z,100059.53
2022-08-02T00:42:11.418Z,100054.47
2022-08-02T00:44:40.371Z,100054.19
2022-08-02T00:47:07.589Z,100049.56
2022-08-02T00:49:34.345Z,100052.28
2022-08-02T00:52:01.918Z,100048.91
2022-08-02T00:54:28.405Z,100051.31
2022-08-02T00:56:54.880Z,100044.75
2022-08-02T00:59:21.460Z,100054.13
2022-08-02T01:01:56.319Z,100058.25
2022-08-02T01:04:31.062Z,100046.75
2022-08-02T01:07:00.455Z,100050.88
2022-08-02T01:09:27.894Z,100047.69
2022-08-02T01:11:56.819Z,100048.91
2022-08-02T01:14:24.725Z,100054.72
2022-08-02T01:17:00.580Z,100051.34
2022-08-02T01:19:43.021Z,100046.28
2022-08-02T01:22:39.472Z,100041.44
2022-08-02T01:25:34.672Z,100047.25
2022-08-02T01:28:27.858Z,100042.84
2022-08-02T01:31:00.679Z,100047.81
2022-08-02T01:33:33.109Z,100042.75
2022-08-02T01:36:00.888Z,100044.44
2022-08-02T01:38:40.544Z,100043.97
2022-08-02T01:41:09.919Z,100045.16
2022-08-02T01:43:38.359Z,100056.03
2022-08-02T01:46:05.598Z,100062.84
2022-08-02T01:48:34.112Z,100057.16
2022-08-02T01:51:03.077Z,100047.91
2022-08-02T01:53:30.987Z,100048.63
2022-08-02T01:55:59.598Z,100038.97
2022-08-02T01:58:30.595Z,100045.44
2022-08-02T02:00:58.700Z,100052.72
2022-08-02T02:03:26.754Z,100037.03
2022-08-02T02:05:58.695Z,100040.31
2022-08-02T02:08:29.434Z,100050.31
2022-08-02T02:10:57.412Z,100051.81
2022-08-02T02:13:44.732Z,100048.44
2022-08-02T02:16:12.099Z,100053.03
2022-08-02T02:18:40.630Z,100058.75
2022-08-02T02:21:07.640Z,100058.63
2022-08-02T02:23:35.749Z,100056.69
2022-08-02T02:26:05.436Z,100062.97
2022-08-02T02:28:35.357Z,100057.06
2022-08-02T02:31:10.530Z,100059.59
2022-08-02T02:33:40.513Z,100066.22
2022-08-02T02:36:10.561Z,100062.66
2022-08-02T02:38:38.032Z,100068.47
2022-08-02T02:41:06.695Z,100069.00
2022-08-02T02:43:34.406Z,100068.56
2022-08-02T02:46:03.347Z,100066.59
2022-08-02T02:48:30.477Z,100066.75
2022-08-02T02:50:57.552Z,100070.50
2022-08-02T02:53:24.177Z,100075.44
2022-08-02T02:56:02.592Z,100077.50
2022-08-02T02:58:30.464Z,100080.88
2022-08-02T03:01:15.658Z,100070.88
2022-08-02T03:03:46.684Z,100072.56
2022-08-02T03:06:15.724Z,100077.31
2022-08-02T03:08:43.130Z,100073.75
2022-08-02T03:11:10.079Z,100078.16
2022-08-02T03:13:37.878Z,100070.69
2022-08-02T03:16:05.104Z,100078.81
2022-08-02T03:18:38.522Z,100074.25
2022-08-02T03:21:06.900Z,100074.06
2022-08-02T03:23:33.957Z,100070.03
2022-08-02T03:26:01.138Z,100067.72
2022-08-02T03:28:27.720Z,100061.63
2022-08-02T03:30:54.223Z,100063.06
2022-08-02T03:33:22.319Z,100056.13
2022-08-02T03:35:50.330Z,100067.00
2022-08-02T03:38:18.036Z,100070.63
2022-08-02T03:40:45.632Z,100078.50
2022-08-02T03:43:12.399Z,100083.09
2022-08-02T03:45:40.119Z,100090.56
2022-08-02T03:48:34.748Z,100092.81
2022-08-02T03:50:55.458Z,100093.34
2022-08-02T03:53:22.711Z,100096.72
2022-08-02T03:55:49.556Z,100105.91
2022-08-02T03:58:23.741Z,100095.69
2022-08-02T04:00:51.279Z,100100.94
2022-08-02T04:03:19.876Z,100096.19
2022-08-02T04:06:03.484Z,100097.31
2022-08-02T04:08:36.839Z,100104.03
2022-08-02T04:11:23.911Z,100108.72
2022-08-02T04:13:50.407Z,100104.72
2022-08-02T04:16:21.733Z,100112.56
2022-08-02T04:18:56.859Z,100116.31
2022-08-02T04:21:26.073Z,100118.38
2022-08-02T04:23:53.188Z,100133.09
2022-08-02T04:26:26.766Z,100123.75
2022-08-02T04:28:55.474Z,100133.72
2022-08-02T04:31:22.488Z,100132.00
2022-08-02T04:33:49.485Z,100142.19
2022-08-02T04:36:15.939Z,100152.53
2022-08-02T04:38:58.257Z,100158.34
2022-08-02T04:41:37.169Z,100148.41
2022-08-02T04:44:07.814Z,100161.69
2022-08-02T04:46:35.877Z,100165.31
2022-08-02T04:49:02.522Z,100177.53
2022-08-02T04:51:38.285Z,100173.13
2022-08-02T04:54:09.017Z,100175.72
2022-08-02T04:56:37.922Z,100186.91
2022-08-02T04:59:05.578Z,100187.34
2022-08-02T05:01:32.401Z,100196.00
2022-08-02T05:03:59.031Z,100189.59
2022-08-02T05:06:25.468Z,100185.59
2022-08-02T05:08:52.841Z,100186.88
2022-08-02T05:11:19.943Z,100188.53
2022-08-02T05:13:58.039Z,100184.41
2022-08-02T05:16:31.821Z,100181.78
2022-08-02T05:19:00.116Z,100184.56
2022-08-02T05:21:26.772Z,100184.97
2022-08-02T05:23:53.253Z,100188.03
2022-08-02T05:26:19.803Z,100194.16
2022-08-02T05:28:46.197Z,100201.94
2022-08-02T05:31:13.364Z,100205.91
2022-08-02T05:33:40.496Z,100201.34
2022-08-02T05:36:09.237Z,100210.28
2022-08-02T05:38:36.926Z,100215.81
2022-08-02T05:41:04.509Z,100210.78
2022-08-02T05:43:30.996Z,100210.34
2022-08-02T05:45:57.685Z,100207.41
2022-08-02T05:48:29.282Z,100207.84
2022-08-02T05:51:03.897Z,100204.88
2022-08-02T05:53:47.512Z,100206.28
2022-08-02T05:56:20.786Z,100196.44
2022-08-02T05:58:57.156Z,100206.53
2022-08-02T06:01:32.197Z,100209.28
2022-08-02T06:04:00.260Z,100211.63
2022-08-02T06:06:27.073Z,100213.66
2022-08-02T06:09:00.669Z,100218.34
2022-08-02T06:11:35.666Z,100215.41
2022-08-02T06:14:03.890Z,100212.69
2022-08-02T06:16:32.658Z,100220.00
2022-08-02T06:19:00.478Z,100214.09
2022-08-02T06:22:33.088Z,100212.53
2022-08-02T06:24:20.227Z,100215.78
2022-08-02T06:26:47.059Z,100218.59
2022-08-02T06:29:14.040Z,100222.44
2022-08-02T06:31:42.090Z,100212.94
2022-08-02T06:34:11.777Z,100220.25
2022-08-02T06:36:47.639Z,100225.66
2022-08-02T06:39:52.481Z,100219.13
2022-08-02T06:42:27.577Z,100218.28
2022-08-02T06:45:20.424Z,100212.66
2022-08-02T06:47:51.088Z,100215.97
2022-08-02T06:50:23.733Z,100214.19
2022-08-02T06:52:54.081Z,100215.66
2022-08-02T06:55:23.973Z,100220.25
2022-08-02T06:57:53.802Z,100216.88
2022-08-02T07:00:34.227Z,100213.91
2022-08-02T07:03:04.714Z,100200.00
2022-08-02T07:05:31.761Z,100209.50
2022-08-02T07:07:58.516Z,100200.34
2022-08-02T07:10:27.734Z,100198.69
2022-08-02T07:12:58.288Z,100203.13
2022-08-02T07:15:28.763Z,100203.13
2022-08-02T07:17:59.476Z,100202.59
2022-08-02T07:20:26.328Z,100201.88
2022-08-02T07:22:53.348Z,100204.56
2022-08-02T07:25:20.491Z,100216.47
2022-08-02T07:27:50.295Z,100220.59
2022-08-02T07:30:19.790Z,100215.94
2022-08-02T07:32:47.808Z,100205.00
2022-08-02T07:35:14.777Z,100197.06
2022-08-02T07:37:55.483Z,100192.28
2022-08-02T07:40:28.525Z,100190.09
2022-08-02T07:43:03.086Z,100188.63
2022-08-02T07:45:31.444Z,100184.34
2022-08-02T07:48:02.055Z,100191.75
2022-08-02T07:50:28.649Z,100186.41
2022-08-02T07:52:57.633Z,100195.22
2022-08-02T07:55:37.957Z,100186.91
2022-08-02T07:58:07.147Z,100176.53
2022-08-02T08:00:45.484Z,100178.97
2022-08-02T08:03:14.139Z,100176.34
2022-08-02T08:05:41.306Z,100182.44
2022-08-02T08:08:13.815Z,100176.13
2022-08-02T08:10:43.488Z,100182.09
2022-08-02T08:13:13.568Z,100182.38
2022-08-02T08:15:42.448Z,100177.72
2022-08-02T08:18:21.653Z,100180.06
2022-08-02T08:20:48.751Z,100173.31
2022-08-02T08:23:15.501Z,100176.44
2022-08-02T08:25:42.321Z,100176.16
2022-08-02T08:28:11.493Z,100174.06
2022-08-02T08:30:40.584Z,100173.66
2022-08-02T08:33:08.050Z,100176.66
2022-08-02T08:35:35.462Z,100176.38
2022-08-02T08:38:07.720Z,100171.75
2022-08-02T08:40:35.437Z,100166.97
2022-08-02T08:43:07.726Z,100172.00
2022-08-02T08:45:34.666Z,100163.78
2022-08-02T08:48:07.308Z,100172.50
2022-08-02T08:50:35.700Z,100164.78
2022-08-02T08:53:13.710Z,100167.50
2022-08-02T08:55:50.724Z,100166.81
2022-08-02T08:58:20.671Z,100158.69
2022-08-02T09:00:47.726Z,100176.28
2022-08-02T09:03:14.455Z,100169.97
2022-08-02T09:05:47.127Z,100173.75
2022-08-02T09:08:18.235Z,100172.06
2022-08-02T09:10:55.838Z,100170.63
2022-08-02T09:13:45.179Z,100166.69
2022-08-02T09:16:17.393Z,100164.16
2022-08-02T09:18:46.448Z,100155.81
2022-08-02T09:21:21.351Z,100157.00
2022-08-02T09:24:01.615Z,100152.06
2022-08-02T09:26:30.897Z,100160.25
2022-08-02T09:29:27.444Z,100163.84
2022-08-02T09:32:07.348Z,100150.88
2022-08-02T09:35:06.087Z,100141.88
2022-08-02T09:37:42.047Z,100144.41
2022-08-02T09:40:42.258Z,100152.31
2022-08-02T09:43:02.973Z,100141.16
2022-08-02T09:45:37.313Z,100131.56
2022-08-02T09:48:12.350Z,100132.91
2022-08-02T09:50:42.766Z,100135.91
2022-08-02T09:53:21.260Z,100132.66
2022-08-02T09:55:57.288Z,100128.44
2022-08-02T09:58:24.036Z,100127.72
2022-08-02T10:00:59.115Z,100130.78
2022-08-02T10:03:34.935Z,100128.00
2022-08-02T10:06:03.070Z,100121.72
2022-08-02T10:08:32.982Z,100128.19
2022-08-02T10:11:01.126Z,100117.66
2022-08-02T10:13:35.921Z,100115.66
2022-08-02T10:16:04.257Z,100119.41
2022-08-02T10:18:41.144Z,100125.63
2022-08-02T10:21:24.417Z,100114.09
2022-08-02T10:23:55.953Z,100108.47
2022-08-02T10:26:23.725Z,100116.41
2022-08-02T10:28:52.527Z,100113.94
2022-08-02T10:31:24.622Z,100107.22
2022-08-02T10:33:53.074Z,100105.94
2022-08-02T10:36:25.865Z,100098.66
2022-08-02T10:38:54.397Z,100091.84
2022-08-02T10:41:47.458Z,100094.00
2022-08-02T10:44:40.347Z,100086.56
2022-08-02T10:47:27.411Z,100082.06
2022-08-02T10:49:56.286Z,100084.81
2022-08-02T10:52:24.427Z,100082.19
2022-08-02T10:55:22.429Z,100080.72
2022-08-02T10:58:19.322Z,100079.59
2022-08-02T11:00:48.542Z,100069.97
2022-08-02T11:03:39.287Z,100071.41
2022-08-02T11:06:26.174Z,100068.44
2022-08-02T11:09:33.801Z,100067.28
2022-08-02T11:12:12.369Z,100070.47
2022-08-02T11:14:43.948Z,100073.06
2022-08-02T11:17:14.213Z,100073.84
2022-08-02T11:20:11.249Z,100069.75
2022-08-02T11:22:42.401Z,100071.63
2022-08-02T11:25:24.136Z,100075.41
2022-08-02T11:28:03.617Z,100077.97
2022-08-02T11:30:30.037Z,100079.03
2022-08-02T11:32:59.989Z,100066.34
2022-08-02T11:35:38.045Z,100079.53
2022-08-02T11:38:29.968Z,100074.13
2022-08-02T11:40:57.484Z,100074.88
2022-08-02T11:43:28.148Z,100071.97
2022-08-02T11:45:57.984Z,100075.81
2022-08-02T11:48:37.281Z,100062.03
2022-08-02T11:51:07.673Z,100046.00
2022-08-02T11:53:41.862Z,100055.28
2022-08-02T11:56:08.923Z,100050.66
2022-08-02T11:58:39.275Z,100047.19
2022-08-02T12:01:13.525Z,100039.69
2022-08-02T12:03:43.117Z,100048.28
2022-08-02T12:06:16.198Z,100040.44
2022-08-02T12:09:17.905Z,100042.16
2022-08-02T12:11:51.043Z,100041.22
2022-08-02T12:14:20.427Z,100036.78
2022-08-02T12:17:09.663Z,100029.41
2022-08-02T12:19:36.750Z,100033.44
2022-08-02T12:22:08.617Z,100030.66
2022-08-02T12:24:35.949Z,100020.28
2022-08-02T12:27:02.779Z,100012.78
2022-08-02T12:29:55.748Z,100013.13
2022-08-02T12:32:25.475Z,100006.25
2022-08-02T12:35:26.328Z,99994.78
2022-08-02T12:37:57.872Z,99997.13
2022-08-02T12:40:34.796Z,100002.72
2022-08-02T12:43:21.922Z,100000.19
2022-08-02T12:45:54.445Z,99998.69
2022-08-02T12:48:45.167Z,99995.50
2022-08-02T12:51:50.747Z,99991.81
2022-08-02T12:54:18.184Z,99996.41
2022-08-02T12:56:45.448Z,99997.28
2022-08-02T12:59:12.740Z,100001.19
2022-08-02T13:01:45.706Z,99998.47
2022-08-02T13:04:14.115Z,100000.75
2022-08-02T13:06:45.864Z,99998.09
2022-08-02T13:09:19.454Z,99978.78
2022-08-02T13:11:46.458Z,99977.50
2022-08-02T13:14:21.304Z,99972.66
2022-08-02T13:16:54.536Z,99987.91
2022-08-02T13:19:23.044Z,99983.09
2022-08-02T13:22:01.906Z,99971.81
2022-08-02T13:24:39.892Z,99976.34
2022-08-02T13:27:30.497Z,99982.94
2022-08-02T13:30:00.765Z,99979.66
2022-08-02T13:32:30.967Z,99973.56
2022-08-02T13:35:01.069Z,99965.53
2022-08-02T13:37:33.063Z,99967.56
2022-08-02T13:40:25.041Z,99971.03
2022-08-02T13:42:53.141Z,99968.66
2022-08-02T13:45:27.238Z,99962.84
2022-08-02T13:48:04.245Z,99972.88
2022-08-02T13:50:33.579Z,99958.91
2022-08-02T13:53:00.216Z,99959.84
2022-08-02T13:55:38.404Z,99959.84
2022-08-02T13:58:14.044Z,99951.91
2022-08-02T14:00:46.261Z,99943.88
2022-08-02T14:03:13.051Z,99939.31
2022-08-02T14:05:49.071Z,99936.56
2022-08-02T14:08:21.339Z,99948.78
2022-08-02T14:10:48.989Z,99936.28
2022-08-02T14:13:21.266Z,99941.78
2022-08-02T14:15:48.079Z,99936.06
2022-08-02T14:21:03.691Z,99941.75
2022-08-02T14:23:49.979Z,99938.00
2022-08-02T14:26:26.805Z,99925.13
2022-08-02T14:28:54.721Z,99909.38
2022-08-02T14:31:21.305Z,99916.28
2022-08-02T14:33:50.582Z,99914.13
2022-08-02T14:36:27.465Z,99912.97
2022-08-02T14:39:08.386Z,99914.66
2022-08-02T14:41:59.645Z,99912.22
2022-08-02T14:44:31.488Z,99918.72
2022-08-02T14:46:58.247Z,99910.69
2022-08-02T14:49:27.653Z,99907.69
2022-08-02T14:51:55.192Z,99917.09
2022-08-02T14:54:32.629Z,99909.03
2022-08-02T14:57:02.696Z,99908.28
2022-08-02T14:59:31.930Z,99910.63
2022-08-02T15:01:59.646Z,99913.81
2022-08-02T15:04:43.372Z,99905.28
2022-08-02T15:07:13.771Z,99906.59
2022-08-02T15:09:40.972Z,99912.81
2022-08-02T15:12:18.474Z,99911.72
2022-08-02T15:14:55.263Z,99902.03
2022-08-02T15:17:31.893Z,99881.75
2022-08-02T15:20:02.005Z,99883.72
2022-08-02T15:22:41.046Z,99893.09
2022-08-02T15:25:16.416Z,99891.69
2022-08-02T15:27:48.817Z,99893.88
2022-08-02T15:30:15.912Z,99891.81
2022-08-02T15:32:53.231Z,99887.75
2022-08-02T15:35:26.516Z,99884.88
2022-08-02T15:37:55.869Z,99886.22
2022-08-02T15:40:30.774Z,99884.56
2022-08-02T15:43:00.261Z,99883.75
2022-08-02T15:45:27.942Z,99888.09
2022-08-02T15:47:58.340Z,99892.31
2022-08-02T15:50:27.675Z,99887.56
2022-08-02T15:52:54.213Z,99885.47
2022-08-02T15:55:20.874Z,99884.44
2022-08-02T15:57:47.555Z,99883.53
2022-08-02T16:00:41.846Z,99890.47
2022-08-02T16:03:24.626Z,99887.41
2022-08-02T16:05:55.037Z,99887.25
2022-08-02T16:08:54.710Z,99879.28
2022-08-02T16:11:31.309Z,99886.91
2022-08-02T16:14:14.812Z,99889.47
2022-08-02T16:17:51.279Z,99883.28
2022-08-02T16:21:11.937Z,99882.16
2022-08-02T16:24:20.161Z,99881.19
2022-08-02T16:27:03.930Z,99885.00
2022-08-02T16:29:33.773Z,99871.16
2022-08-02T16:32:03.989Z,99882.22
2022-08-02T16:34:45.081Z,99878.16
2022-08-02T16:37:21.820Z,99875.06
2022-08-02T16:39:49.209Z,99875.06
2022-08-02T16:42:25.655Z,99874.09
2022-08-02T16:44:53.500Z,99872.75
2022-08-02T16:47:21.273Z,99876.72
2022-08-02T16:52:58.046Z,99874.09
2022-08-02T16:55:25.210Z,99882.38
2022-08-02T16:57:51.624Z,99880.75
2022-08-02T17:00:23.425Z,99877.25
2022-08-02T17:02:49.928Z,99877.34
2022-08-02T17:05:17.486Z,99874.38
2022-08-02T17:08:16.645Z,99868.41
2022-08-02T17:10:31.207Z,99878.28
2022-08-02T17:12:58.127Z,99884.78
2022-08-02T17:16:08.306Z,99894.38
2022-08-02T17:18:26.554Z,99886.16
2022-08-02T17:20:54.375Z,99885.06
2022-08-02T17:23:20.847Z,99889.66
2022-08-02T17:25:52.365Z,99891.75
2022-08-02T17:28:19.868Z,99889.94
2022-08-02T17:30:46.295Z,99883.34
2022-08-02T17:33:13.074Z,99882.88
2022-08-02T17:35:52.005Z,99886.34
2022-08-02T17:38:26.498Z,99890.81
2022-08-02T17:40:57.043Z,99892.56
2022-08-02T17:43:29.158Z,99890.38
2022-08-02T17:45:59.924Z,99891.50
2022-08-02T17:48:49.103Z,99886.50
2022-08-02T17:51:15.590Z,99893.78
2022-08-02T17:54:01.987Z,99889.91
2022-08-02T17:56:30.923Z,99888.81
2022-08-02T17:59:20.185Z,99889.63
2022-08-02T18:01:52.470Z,99893.50
2022-08-02T18:04:19.644Z,99893.25
2022-08-02T18:06:58.469Z,99892.13
2022-08-02T18:09:28.476Z,99892.69
2022-08-02T18:11:57.377Z,99891.03
2022-08-02T18:14:24.435Z,99896.00
2022-08-02T18:16:53.196Z,99896.25
2022-08-02T18:19:19.888Z,99902.03
2022-08-02T18:21:48.069Z,99896.47
2022-08-02T18:24:15.803Z,99900.34
2022-08-02T18:26:43.380Z,99904.75
2022-08-02T18:29:10.866Z,99901.38
2022-08-02T18:31:40.223Z,99903.53
2022-08-02T18:34:17.480Z,99900.16
2022-08-02T18:36:47.055Z,99902.28
2022-08-02T18:39:32.963Z,99907.75
2022-08-02T18:41:59.815Z,99910.44
2022-08-02T18:44:29.979Z,99903.97
2022-08-02T18:46:57.524Z,99908.00
2022-08-02T18:49:30.065Z,99909.03
2022-08-02T18:52:13.024Z,99908.91
2022-08-02T18:54:39.726Z,99911.56
2022-08-02T18:57:59.665Z,99914.22
2022-08-02T18:59:56.134Z,99915.56
2022-08-02T19:02:24.804Z,99908.28
2022-08-02T19:04:51.906Z,99916.97
2022-08-02T19:07:22.585Z,99914.94
2022-08-02T19:09:49.736Z,99918.44
2022-08-02T19:12:28.436Z,99922.22
2022-08-02T19:14:57.384Z,99926.19
2022-08-02T19:17:54.976Z,99924.13
2022-08-02T19:20:19.237Z,99925.97
2022-08-02T19:22:46.936Z,99926.09
2022-08-02T19:25:21.537Z,99925.53
2022-08-02T19:27:55.347Z,99922.88
2022-08-02T19:30:22.395Z,99917.22
2022-08-02T19:32:59.367Z,99922.03
2022-08-02T19:36:02.001Z,99929.09
2022-08-02T19:38:32.349Z,99930.59
2022-08-02T19:40:59.659Z,99932.94
2022-08-02T19:44:26.158Z,99926.78
2022-08-02T19:46:43.844Z,99937.94
2022-08-02T19:49:20.258Z,99936.97
2022-08-02T19:51:57.453Z,99937.69
2022-08-02T19:54:54.248Z,99938.34
2022-08-02T19:57:17.004Z,99948.91
2022-08-02T19:59:45.993Z,99945.22
2022-08-02T20:02:15.719Z,99951.72
2022-08-02T20:04:49.935Z,99949.69
2022-08-02T20:07:49.788Z,99952.63
2022-08-02T20:10:10.758Z,99959.94
2022-08-02T20:12:38.698Z,99960.19
2022-08-02T20:15:14.685Z,99962.34
2022-08-02T20:17:47.686Z,99949.91
2022-08-02T20:20:16.910Z,99967.97
2022-08-02T20:23:33.342Z,99961.97
2022-08-02T20:25:54.185Z,99960.13
2022-08-02T20:28:21.934Z,99965.50
2022-08-02T20:30:55.008Z,99967.31
2022-08-02T20:33:23.347Z,99967.09
2022-08-02T20:35:53.374Z,99978.69
2022-08-02T20:38:25.003Z,99968.81
2022-08-02T20:41:21.703Z,99977.16
2022-08-02T20:43:50.977Z,99973.47
2022-08-02T20:46:20.441Z,99973.59
2022-08-02T20:48:50.399Z,99971.94
2022-08-02T20:51:33.527Z,99969.19
2022-08-02T20:54:03.084Z,99970.88
2022-08-02T20:56:29.769Z,99973.69
2022-08-02T20:59:04.173Z,99967.88
2022-08-02T21:01:57.438Z,99968.34
2022-08-02T21:04:25.000Z,99970.00
2022-08-02T21:06:51.640Z,99968.72
2022-08-02T21:09:18.364Z,99963.31
2022-08-02T21:11:51.145Z,99970.44
2022-08-02T21:14:20.396Z,99976.31
2022-08-02T21:16:55.644Z,99970.44
2022-08-02T21:19:22.597Z,99969.59
2022-08-02T21:21:51.678Z,99969.47
2022-08-02T21:24:18.626Z,99965.75
2022-08-02T21:26:51.556Z,99966.13
2022-08-02T21:29:19.140Z,99964.81
2022-08-02T21:31:45.960Z,99970.88
2022-08-02T21:34:27.250Z,99962.16
2022-08-02T21:36:55.131Z,99965.81
2022-08-02T21:39:21.943Z,99972.22
2022-08-02T21:41:50.036Z,99967.22
2022-08-02T21:44:19.325Z,99960.47
2022-08-02T21:46:49.360Z,99963.09
2022-08-02T21:49:20.192Z,99957.72
2022-08-02T21:51:49.803Z,99963.88
2022-08-02T21:54:21.478Z,99954.66
2022-08-02T21:56:50.260Z,99967.19
2022-08-02T21:59:25.368Z,99967.66
2022-08-02T22:01:56.936Z,99970.25
2022-08-02T22:04:25.783Z,99962.25
2022-08-02T22:06:53.542Z,99961.97
2022-08-02T22:09:44.308Z,99963.72
2022-08-02T22:12:10.401Z,99963.78
2022-08-02T22:14:43.359Z,99964.25
2022-08-02T22:17:16.721Z,99960.28
2022-08-02T22:19:53.477Z,99963.97
2022-08-02T22:22:28.423Z,99956.63
2022-08-02T22:24:56.517Z,99961.47
2022-08-02T22:28:15.760Z,99967.88
2022-08-02T22:30:11.258Z,99970.47
2022-08-02T22:32:56.728Z,99982.72
2022-08-02T22:35:24.873Z,99975.63
2022-08-02T22:38:17.311Z,99969.97
2022-08-02T22:40:38.586Z,99968.53
2022-08-02T22:43:08.588Z,99977.13
2022-08-02T22:45:37.896Z,99979.97
2022-08-02T22:48:06.892Z,99976.22
2022-08-02T22:50:34.058Z,99976.66
2022-08-02T22:53:03.020Z,99978.78
2022-08-02T22:55:32.106Z,99984.25
2022-08-02T22:57:59.723Z,99986.59
2022-08-02T22:58:48.967Z,99875.97
2022-08-02T23:00:26.679Z,99984.38
2022-08-02T23:02:54.064Z,99977.28
2022-08-02T23:05:21.735Z,99983.19
2022-08-02T23:07:48.412Z,99984.91
2022-08-02T23:10:15.463Z,99986.41
2022-08-02T23:12:42.228Z,99983.91
2022-08-02T23:15:10.342Z,99985.84
2022-08-02T23:17:56.287Z,99986.50
2022-08-02T23:20:24.458Z,99987.63
2022-08-02T23:22:51.378Z,99987.22
2022-08-02T23:25:19.091Z,99991.44
2022-08-02T23:27:50.544Z,99988.13
2022-08-02T23:30:18.639Z,99991.56
2022-08-02T23:32:46.766Z,99983.84
2022-08-02T23:35:17.117Z,99991.88
2022-08-02T23:37:59.298Z,99991.06
2022-08-02T23:40:40.170Z,99987.50
2022-08-02T23:43:13.995Z,99992.97
2022-08-02T23:45:43.129Z,99979.13
2022-08-02T23:48:10.642Z,99987.13
2022-08-02T23:50:37.590Z,99980.81
2022-08-02T23:53:04.340Z,99992.19
2022-08-02T23:55:31.123Z,99988.00
2022-08-02T23:57:57.794Z,99983.78
